sensor_id;sensor_type;location;lat;lon;timestamp;temperature;humidity
21648;DHT22;10985;54.182;7.890;2023-04-25T00:02:11;7.20;99.90
21648;DHT22;10985;54.182;7.890;2023-04-25T00:04:37;7.20;99.90
21648;DHT22;10985;54.182;7.890;2023-04-25T00:07:03;7.20;99.90
21648;DHT22;10985;54.182;7.890;2023-04-25T00:09:29;7.20;99.90
21648;DHT22;10985;54.182;7.890;2023-04-25T00:11:55;7.20;99.90
21648;DHT22;10985;54.182;7.890;2023-04-25T00:14:20;7.20;99.90
21648;DHT22;10985;54.182;7.890;2023-04-25T00:16:46;7.10;99.90
21648;DHT22;10985;54.182;7.890;2023-04-25T00:19:11;7.10;99.90
21648;DHT22;10985;54.182;7.890;2023-04-25T00:21:38;7.10;99.90
21648;DHT22;10985;54.182;7.890;2023-04-25T00:24:06;7.00;99.90
21648;DHT22;10985;54.182;7.890;2023-04-25T00:26:33;7.10;99.90
21648;DHT22;10985;54.182;7.890;2023-04-25T00:28:58;7.10;99.90
21648;DHT22;10985;54.182;7.890;2023-04-25T00:31:24;7.10;99.90
21648;DHT22;10985;54.182;7.890;2023-04-25T00:33:49;7.10;99.90
21648;DHT22;10985;54.182;7.890;2023-04-25T00:36:15;7.10;99.90
21648;DHT22;10985;54.182;7.890;2023-04-25T00:38:40;7.10;99.90
21648;DHT22;10985;54.182;7.890;2023-04-25T00:41:07;7.10;99.90
21648;DHT22;10985;54.182;7.890;2023-04-25T00:43:33;7.10;99.90
21648;DHT22;10985;54.182;7.890;2023-04-25T00:46:00;7.10;99.90
21648;DHT22;10985;54.182;7.890;2023-04-25T00:48:26;7.10;99.90
21648;DHT22;10985;54.182;7.890;2023-04-25T00:50:54;7.10;99.90
21648;DHT22;10985;54.182;7.890;2023-04-25T00:53:21;7.10;99.90
21648;DHT22;10985;54.182;7.890;2023-04-25T00:55:47;7.10;99.90
21648;DHT22;10985;54.182;7.890;2023-04-25T00:58:13;7.10;99.90
21648;DHT22;10985;54.182;7.890;2023-04-25T01:00:40;7.10;99.90
21648;DHT22;10985;54.182;7.890;2023-04-25T01:03:06;7.10;99.90
21648;DHT22;10985;54.182;7.890;2023-04-25T01:05:31;7.10;99.90
21648;DHT22;10985;54.182;7.890;2023-04-25T01:07:57;7.10;99.90
21648;DHT22;10985;54.182;7.890;2023-04-25T01:10:22;7.20;99.90
21648;DHT22;10985;54.182;7.890;2023-04-25T01:12:48;7.10;99.90
21648;DHT22;10985;54.182;7.890;2023-04-25T01:15:13;7.10;99.90
21648;DHT22;10985;54.182;7.890;2023-04-25T01:17:40;7.10;99.90
21648;DHT22;10985;54.182;7.890;2023-04-25T01:20:07;7.10;99.90
21648;DHT22;10985;54.182;7.890;2023-04-25T01:22:34;7.10;99.90
21648;DHT22;10985;54.182;7.890;2023-04-25T01:25:00;7.10;99.90
21648;DHT22;10985;54.182;7.890;2023-04-25T01:27:26;7.10;99.90
21648;DHT22;10985;54.182;7.890;2023-04-25T01:29:54;7.10;99.90
21648;DHT22;10985;54.182;7.890;2023-04-25T01:32:20;7.10;99.90
21648;DHT22;10985;54.182;7.890;2023-04-25T01:34:46;7.10;99.90
21648;DHT22;10985;54.182;7.890;2023-04-25T01:37:12;7.10;99.90
21648;DHT22;10985;54.182;7.890;2023-04-25T01:39:37;7.00;99.90
21648;DHT22;10985;54.182;7.890;2023-04-25T01:42:03;7.00;99.90
21648;DHT22;10985;54.182;7.890;2023-04-25T01:44:29;7.00;99.90
21648;DHT22;10985;54.182;7.890;2023-04-25T01:46:54;7.00;99.90
21648;DHT22;10985;54.182;7.890;2023-04-25T01:49:20;7.00;99.90
21648;DHT22;10985;54.182;7.890;2023-04-25T01:51:45;7.00;99.90
21648;DHT22;10985;54.182;7.890;2023-04-25T01:54:11;7.00;99.90
21648;DHT22;10985;54.182;7.890;2023-04-25T01:56:38;7.00;99.90
21648;DHT22;10985;54.182;7.890;2023-04-25T01:59:04;7.00;99.90
21648;DHT22;10985;54.182;7.890;2023-04-25T02:01:30;7.00;99.90
21648;DHT22;10985;54.182;7.890;2023-04-25T02:03:56;7.00;99.90
21648;DHT22;10985;54.182;7.890;2023-04-25T02:06:21;7.00;99.90
21648;DHT22;10985;54.182;7.890;2023-04-25T02:08:47;7.00;99.90
21648;DHT22;10985;54.182;7.890;2023-04-25T02:11:13;7.00;99.90
21648;DHT22;10985;54.182;7.890;2023-04-25T02:13:38;7.10;99.90
21648;DHT22;10985;54.182;7.890;2023-04-25T02:16:04;7.10;99.90
21648;DHT22;10985;54.182;7.890;2023-04-25T02:18:30;7.00;99.90
21648;DHT22;10985;54.182;7.890;2023-04-25T02:20:57;6.90;99.90
21648;DHT22;10985;54.182;7.890;2023-04-25T02:23:23;6.90;99.90
21648;DHT22;10985;54.182;7.890;2023-04-25T02:25:48;6.80;99.90
21648;DHT22;10985;54.182;7.890;2023-04-25T02:28:14;6.80;99.90
21648;DHT22;10985;54.182;7.890;2023-04-25T02:30:40;6.80;99.90
21648;DHT22;10985;54.182;7.890;2023-04-25T02:33:05;6.70;99.90
21648;DHT22;10985;54.182;7.890;2023-04-25T02:35:31;6.70;99.90
21648;DHT22;10985;54.182;7.890;2023-04-25T02:37:56;6.70;99.90
21648;DHT22;10985;54.182;7.890;2023-04-25T02:40:22;6.70;99.90
21648;DHT22;10985;54.182;7.890;2023-04-25T02:42:47;6.60;99.90
21648;DHT22;10985;54.182;7.890;2023-04-25T02:45:13;6.60;99.90
21648;DHT22;10985;54.182;7.890;2023-04-25T02:47:39;6.60;99.90
21648;DHT22;10985;54.182;7.890;2023-04-25T02:50:05;6.70;99.90
21648;DHT22;10985;54.182;7.890;2023-04-25T02:52:30;6.70;99.90
21648;DHT22;10985;54.182;7.890;2023-04-25T02:54:56;6.70;99.90
21648;DHT22;10985;54.182;7.890;2023-04-25T02:57:21;6.70;99.90
21648;DHT22;10985;54.182;7.890;2023-04-25T02:59:47;6.70;99.90
21648;DHT22;10985;54.182;7.890;2023-04-25T03:02:12;6.70;99.90
21648;DHT22;10985;54.182;7.890;2023-04-25T03:04:38;6.70;99.90
21648;DHT22;10985;54.182;7.890;2023-04-25T03:07:04;6.70;99.90
21648;DHT22;10985;54.182;7.890;2023-04-25T03:09:30;6.70;99.90
21648;DHT22;10985;54.182;7.890;2023-04-25T03:11:56;6.80;99.90
21648;DHT22;10985;54.182;7.890;2023-04-25T03:14:21;6.80;99.90
21648;DHT22;10985;54.182;7.890;2023-04-25T03:16:47;6.80;99.90
21648;DHT22;10985;54.182;7.890;2023-04-25T03:19:12;6.90;99.90
21648;DHT22;10985;54.182;7.890;2023-04-25T03:21:38;6.90;99.90
21648;DHT22;10985;54.182;7.890;2023-04-25T03:24:04;6.90;99.90
21648;DHT22;10985;54.182;7.890;2023-04-25T03:26:30;7.00;99.90
21648;DHT22;10985;54.182;7.890;2023-04-25T03:28:55;7.00;99.90
21648;DHT22;10985;54.182;7.890;2023-04-25T03:31:21;7.00;99.90
21648;DHT22;10985;54.182;7.890;2023-04-25T03:33:47;7.10;99.90
21648;DHT22;10985;54.182;7.890;2023-04-25T03:36:13;7.10;99.90
21648;DHT22;10985;54.182;7.890;2023-04-25T03:38:38;7.10;99.90
21648;DHT22;10985;54.182;7.890;2023-04-25T03:41:06;7.00;99.90
21648;DHT22;10985;54.182;7.890;2023-04-25T03:43:31;6.80;99.90
21648;DHT22;10985;54.182;7.890;2023-04-25T03:45:57;6.60;99.90
21648;DHT22;10985;54.182;7.890;2023-04-25T03:48:23;6.60;99.90
21648;DHT22;10985;54.182;7.890;2023-04-25T03:50:50;6.50;99.90
21648;DHT22;10985;54.182;7.890;2023-04-25T03:53:15;6.50;99.90
21648;DHT22;10985;54.182;7.890;2023-04-25T03:55:41;6.40;99.90
21648;DHT22;10985;54.182;7.890;2023-04-25T03:58:06;6.30;99.90
21648;DHT22;10985;54.182;7.890;2023-04-25T04:00:33;6.30;99.90
21648;DHT22;10985;54.182;7.890;2023-04-25T04:02:59;6.30;99.90
21648;DHT22;10985;54.182;7.890;2023-04-25T04:05:24;6.10;99.90
21648;DHT22;10985;54.182;7.890;2023-04-25T04:07:50;6.10;99.90
21648;DHT22;10985;54.182;7.890;2023-04-25T04:10:15;6.00;99.90
21648;DHT22;10985;54.182;7.890;2023-04-25T04:12:41;6.10;99.90
21648;DHT22;10985;54.182;7.890;2023-04-25T04:15:07;6.10;99.90
21648;DHT22;10985;54.182;7.890;2023-04-25T04:17:33;6.10;99.90
21648;DHT22;10985;54.182;7.890;2023-04-25T04:19:59;6.10;99.90
21648;DHT22;10985;54.182;7.890;2023-04-25T04:22:24;6.10;99.90
21648;DHT22;10985;54.182;7.890;2023-04-25T04:24:50;6.10;99.90
21648;DHT22;10985;54.182;7.890;2023-04-25T04:27:19;6.10;99.90
21648;DHT22;10985;54.182;7.890;2023-04-25T04:29:45;6.10;99.90
21648;DHT22;10985;54.182;7.890;2023-04-25T04:32:12;6.10;99.90
21648;DHT22;10985;54.182;7.890;2023-04-25T04:34:37;6.20;99.90
21648;DHT22;10985;54.182;7.890;2023-04-25T04:37:04;6.10;99.90
21648;DHT22;10985;54.182;7.890;2023-04-25T04:39:30;6.10;99.90
21648;DHT22;10985;54.182;7.890;2023-04-25T04:41:56;6.10;99.90
21648;DHT22;10985;54.182;7.890;2023-04-25T04:44:21;6.10;99.90
21648;DHT22;10985;54.182;7.890;2023-04-25T04:46:46;5.90;99.90
21648;DHT22;10985;54.182;7.890;2023-04-25T04:49:12;5.90;99.90
21648;DHT22;10985;54.182;7.890;2023-04-25T04:51:39;5.90;99.90
21648;DHT22;10985;54.182;7.890;2023-04-25T04:54:05;6.00;99.90
21648;DHT22;10985;54.182;7.890;2023-04-25T04:56:31;6.00;99.90
21648;DHT22;10985;54.182;7.890;2023-04-25T04:58:57;6.00;99.90
21648;DHT22;10985;54.182;7.890;2023-04-25T05:01:23;6.10;99.90
21648;DHT22;10985;54.182;7.890;2023-04-25T05:03:49;6.10;99.90
21648;DHT22;10985;54.182;7.890;2023-04-25T05:06:16;6.10;99.90
21648;DHT22;10985;54.182;7.890;2023-04-25T05:08:42;6.20;99.90
21648;DHT22;10985;54.182;7.890;2023-04-25T05:11:07;6.30;99.90
21648;DHT22;10985;54.182;7.890;2023-04-25T05:13:33;6.30;99.90
21648;DHT22;10985;54.182;7.890;2023-04-25T05:15:58;6.40;99.90
21648;DHT22;10985;54.182;7.890;2023-04-25T05:18:24;6.40;99.90
21648;DHT22;10985;54.182;7.890;2023-04-25T05:20:49;6.50;99.90
21648;DHT22;10985;54.182;7.890;2023-04-25T05:23:15;6.50;99.90
21648;DHT22;10985;54.182;7.890;2023-04-25T05:25:40;6.60;99.90
21648;DHT22;10985;54.182;7.890;2023-04-25T05:28:06;6.60;99.90
21648;DHT22;10985;54.182;7.890;2023-04-25T05:30:32;6.60;99.90
21648;DHT22;10985;54.182;7.890;2023-04-25T05:32:57;6.70;99.90
21648;DHT22;10985;54.182;7.890;2023-04-25T05:35:23;6.70;99.90
21648;DHT22;10985;54.182;7.890;2023-04-25T05:37:48;6.70;99.90
21648;DHT22;10985;54.182;7.890;2023-04-25T05:40:14;6.70;99.90
21648;DHT22;10985;54.182;7.890;2023-04-25T05:42:39;6.70;99.90
21648;DHT22;10985;54.182;7.890;2023-04-25T05:45:05;6.80;99.90
21648;DHT22;10985;54.182;7.890;2023-04-25T05:47:31;6.70;99.90
21648;DHT22;10985;54.182;7.890;2023-04-25T05:49:56;6.80;99.90
21648;DHT22;10985;54.182;7.890;2023-04-25T05:52:22;6.80;99.90
21648;DHT22;10985;54.182;7.890;2023-04-25T05:54:48;6.80;99.90
21648;DHT22;10985;54.182;7.890;2023-04-25T05:57:24;6.80;99.90
21648;DHT22;10985;54.182;7.890;2023-04-25T05:59:50;6.90;99.90
21648;DHT22;10985;54.182;7.890;2023-04-25T06:02:16;7.00;99.90
21648;DHT22;10985;54.182;7.890;2023-04-25T06:04:42;7.00;99.90
21648;DHT22;10985;54.182;7.890;2023-04-25T06:07:08;7.10;99.90
21648;DHT22;10985;54.182;7.890;2023-04-25T06:09:34;7.10;99.90
21648;DHT22;10985;54.182;7.890;2023-04-25T06:11:59;7.10;99.90
21648;DHT22;10985;54.182;7.890;2023-04-25T06:14:26;7.10;99.90
21648;DHT22;10985;54.182;7.890;2023-04-25T06:16:52;7.20;99.90
21648;DHT22;10985;54.182;7.890;2023-04-25T06:19:17;7.30;99.90
21648;DHT22;10985;54.182;7.890;2023-04-25T06:21:43;7.30;99.90
21648;DHT22;10985;54.182;7.890;2023-04-25T06:24:09;7.20;99.90
21648;DHT22;10985;54.182;7.890;2023-04-25T06:26:35;7.00;99.90
21648;DHT22;10985;54.182;7.890;2023-04-25T06:29:00;7.00;99.90
21648;DHT22;10985;54.182;7.890;2023-04-25T06:31:26;6.90;99.90
21648;DHT22;10985;54.182;7.890;2023-04-25T06:33:51;6.90;99.90
21648;DHT22;10985;54.182;7.890;2023-04-25T06:36:22;6.90;99.90
21648;DHT22;10985;54.182;7.890;2023-04-25T06:38:50;7.00;99.90
21648;DHT22;10985;54.182;7.890;2023-04-25T06:41:16;7.00;99.90
21648;DHT22;10985;54.182;7.890;2023-04-25T06:43:42;7.00;99.90
21648;DHT22;10985;54.182;7.890;2023-04-25T06:46:07;7.10;99.90
21648;DHT22;10985;54.182;7.890;2023-04-25T06:48:33;7.10;99.90
21648;DHT22;10985;54.182;7.890;2023-04-25T06:50:58;7.10;99.90
21648;DHT22;10985;54.182;7.890;2023-04-25T06:53:24;7.20;99.90
21648;DHT22;10985;54.182;7.890;2023-04-25T06:55:50;7.30;99.90
21648;DHT22;10985;54.182;7.890;2023-04-25T06:58:15;7.30;99.90
21648;DHT22;10985;54.182;7.890;2023-04-25T07:00:40;7.30;99.90
21648;DHT22;10985;54.182;7.890;2023-04-25T07:03:06;7.20;99.90
21648;DHT22;10985;54.182;7.890;2023-04-25T07:05:31;7.20;99.90
21648;DHT22;10985;54.182;7.890;2023-04-25T07:07:57;7.10;99.90
21648;DHT22;10985;54.182;7.890;2023-04-25T07:10:23;7.10;99.90
21648;DHT22;10985;54.182;7.890;2023-04-25T07:12:48;7.20;99.90
21648;DHT22;10985;54.182;7.890;2023-04-25T07:15:14;7.10;99.90
21648;DHT22;10985;54.182;7.890;2023-04-25T07:17:39;7.20;99.90
21648;DHT22;10985;54.182;7.890;2023-04-25T07:20:05;7.30;99.90
21648;DHT22;10985;54.182;7.890;2023-04-25T07:22:32;7.30;99.90
21648;DHT22;10985;54.182;7.890;2023-04-25T07:24:57;7.40;99.90
21648;DHT22;10985;54.182;7.890;2023-04-25T07:27:23;7.30;99.90
21648;DHT22;10985;54.182;7.890;2023-04-25T07:29:48;7.40;99.90
21648;DHT22;10985;54.182;7.890;2023-04-25T07:32:14;7.50;99.90
21648;DHT22;10985;54.182;7.890;2023-04-25T07:34:40;7.60;99.90
21648;DHT22;10985;54.182;7.890;2023-04-25T07:37:06;7.70;99.90
21648;DHT22;10985;54.182;7.890;2023-04-25T07:39:32;7.80;99.90
21648;DHT22;10985;54.182;7.890;2023-04-25T07:41:57;7.90;99.90
21648;DHT22;10985;54.182;7.890;2023-04-25T07:44:27;7.90;99.90
21648;DHT22;10985;54.182;7.890;2023-04-25T07:46:52;7.90;99.90
21648;DHT22;10985;54.182;7.890;2023-04-25T07:49:18;7.90;99.90
21648;DHT22;10985;54.182;7.890;2023-04-25T07:51:43;8.00;99.90
21648;DHT22;10985;54.182;7.890;2023-04-25T07:54:10;7.90;99.90
21648;DHT22;10985;54.182;7.890;2023-04-25T07:56:36;7.90;99.90
21648;DHT22;10985;54.182;7.890;2023-04-25T07:59:01;8.00;99.90
21648;DHT22;10985;54.182;7.890;2023-04-25T08:01:27;7.80;99.90
21648;DHT22;10985;54.182;7.890;2023-04-25T08:03:53;7.70;99.90
21648;DHT22;10985;54.182;7.890;2023-04-25T08:06:18;7.60;99.90
21648;DHT22;10985;54.182;7.890;2023-04-25T08:08:45;7.50;99.90
21648;DHT22;10985;54.182;7.890;2023-04-25T08:11:10;7.50;99.90
21648;DHT22;10985;54.182;7.890;2023-04-25T08:13:36;7.50;99.90
21648;DHT22;10985;54.182;7.890;2023-04-25T08:16:01;7.60;99.90
21648;DHT22;10985;54.182;7.890;2023-04-25T08:18:27;7.70;99.90
21648;DHT22;10985;54.182;7.890;2023-04-25T08:20:53;7.70;99.90
21648;DHT22;10985;54.182;7.890;2023-04-25T08:23:18;7.80;99.90
21648;DHT22;10985;54.182;7.890;2023-04-25T08:25:44;7.80;99.90
21648;DHT22;10985;54.182;7.890;2023-04-25T08:28:09;7.80;99.90
21648;DHT22;10985;54.182;7.890;2023-04-25T08:30:36;7.80;99.90
21648;DHT22;10985;54.182;7.890;2023-04-25T08:33:02;7.90;99.90
21648;DHT22;10985;54.182;7.890;2023-04-25T08:35:28;8.00;99.90
21648;DHT22;10985;54.182;7.890;2023-04-25T08:37:53;8.10;99.90
21648;DHT22;10985;54.182;7.890;2023-04-25T08:40:19;8.30;99.90
21648;DHT22;10985;54.182;7.890;2023-04-25T08:42:53;8.80;99.90
21648;DHT22;10985;54.182;7.890;2023-04-25T08:45:19;9.30;99.90
21648;DHT22;10985;54.182;7.890;2023-04-25T08:47:45;9.60;99.90
21648;DHT22;10985;54.182;7.890;2023-04-25T08:50:11;9.90;99.90
21648;DHT22;10985;54.182;7.890;2023-04-25T08:52:44;9.90;99.90
21648;DHT22;10985;54.182;7.890;2023-04-25T08:55:12;9.90;99.90
21648;DHT22;10985;54.182;7.890;2023-04-25T08:57:38;10.00;99.90
21648;DHT22;10985;54.182;7.890;2023-04-25T09:00:05;10.00;99.90
21648;DHT22;10985;54.182;7.890;2023-04-25T09:02:31;10.10;99.90
21648;DHT22;10985;54.182;7.890;2023-04-25T09:04:57;10.10;99.90
21648;DHT22;10985;54.182;7.890;2023-04-25T09:07:22;10.00;99.90
21648;DHT22;10985;54.182;7.890;2023-04-25T09:09:48;10.10;99.90
21648;DHT22;10985;54.182;7.890;2023-04-25T09:12:13;10.10;99.90
21648;DHT22;10985;54.182;7.890;2023-04-25T09:14:39;10.10;99.90
21648;DHT22;10985;54.182;7.890;2023-04-25T09:17:05;10.20;99.90
21648;DHT22;10985;54.182;7.890;2023-04-25T09:19:34;10.20;99.90
21648;DHT22;10985;54.182;7.890;2023-04-25T09:22:02;10.40;99.90
21648;DHT22;10985;54.182;7.890;2023-04-25T09:24:32;10.60;99.90
21648;DHT22;10985;54.182;7.890;2023-04-25T09:26:58;10.90;99.90
21648;DHT22;10985;54.182;7.890;2023-04-25T09:29:34;11.20;99.90
21648;DHT22;10985;54.182;7.890;2023-04-25T09:34:42;11.50;99.90
21648;DHT22;10985;54.182;7.890;2023-04-25T09:37:09;11.80;99.90
21648;DHT22;10985;54.182;7.890;2023-04-25T09:39:36;12.10;99.90
21648;DHT22;10985;54.182;7.890;2023-04-25T09:42:03;12.20;99.90
21648;DHT22;10985;54.182;7.890;2023-04-25T09:44:29;12.40;99.90
21648;DHT22;10985;54.182;7.890;2023-04-25T09:46:54;12.70;99.90
21648;DHT22;10985;54.182;7.890;2023-04-25T09:49:21;13.00;99.90
21648;DHT22;10985;54.182;7.890;2023-04-25T09:51:59;13.40;99.90
21648;DHT22;10985;54.182;7.890;2023-04-25T09:54:26;14.00;99.90
21648;DHT22;10985;54.182;7.890;2023-04-25T09:56:53;14.40;99.90
21648;DHT22;10985;54.182;7.890;2023-04-25T09:59:21;14.70;99.90
21648;DHT22;10985;54.182;7.890;2023-04-25T10:01:50;15.10;99.90
21648;DHT22;10985;54.182;7.890;2023-04-25T10:04:25;15.50;99.90
21648;DHT22;10985;54.182;7.890;2023-04-25T10:06:53;15.60;99.90
21648;DHT22;10985;54.182;7.890;2023-04-25T10:09:21;15.50;99.90
21648;DHT22;10985;54.182;7.890;2023-04-25T10:11:50;15.30;99.90
21648;DHT22;10985;54.182;7.890;2023-04-25T10:14:16;15.30;99.90
21648;DHT22;10985;54.182;7.890;2023-04-25T10:16:42;15.50;99.90
21648;DHT22;10985;54.182;7.890;2023-04-25T10:19:09;16.00;99.90
21648;DHT22;10985;54.182;7.890;2023-04-25T10:21:40;16.10;99.90
21648;DHT22;10985;54.182;7.890;2023-04-25T10:24:09;16.50;99.90
21648;DHT22;10985;54.182;7.890;2023-04-25T10:26:35;16.90;99.90
21648;DHT22;10985;54.182;7.890;2023-04-25T10:29:02;17.20;99.90
21648;DHT22;10985;54.182;7.890;2023-04-25T10:31:30;17.50;99.90
21648;DHT22;10985;54.182;7.890;2023-04-25T10:33:56;17.70;99.90
21648;DHT22;10985;54.182;7.890;2023-04-25T10:36:22;18.00;99.90
21648;DHT22;10985;54.182;7.890;2023-04-25T10:38:50;18.00;99.90
21648;DHT22;10985;54.182;7.890;2023-04-25T10:41:18;18.10;99.90
21648;DHT22;10985;54.182;7.890;2023-04-25T10:43:45;18.40;99.90
21648;DHT22;10985;54.182;7.890;2023-04-25T10:49:01;18.30;99.90
21648;DHT22;10985;54.182;7.890;2023-04-25T10:51:29;18.50;99.90
21648;DHT22;10985;54.182;7.890;2023-04-25T10:54:01;18.70;99.90
21648;DHT22;10985;54.182;7.890;2023-04-25T10:56:37;18.90;99.90
21648;DHT22;10985;54.182;7.890;2023-04-25T10:59:16;19.20;99.90
21648;DHT22;10985;54.182;7.890;2023-04-25T11:01:45;19.20;99.90
21648;DHT22;10985;54.182;7.890;2023-04-25T11:04:32;19.40;99.90
21648;DHT22;10985;54.182;7.890;2023-04-25T11:09:33;19.70;99.90
21648;DHT22;10985;54.182;7.890;2023-04-25T11:11:59;20.00;99.90
21648;DHT22;10985;54.182;7.890;2023-04-25T11:14:26;19.80;98.90
21648;DHT22;10985;54.182;7.890;2023-04-25T11:16:58;19.70;99.20
21648;DHT22;10985;54.182;7.890;2023-04-25T11:19:25;19.90;98.20
21648;DHT22;10985;54.182;7.890;2023-04-25T11:21:54;19.80;98.10
21648;DHT22;10985;54.182;7.890;2023-04-25T11:24:19;19.80;98.60
21648;DHT22;10985;54.182;7.890;2023-04-25T11:26:46;20.00;98.70
21648;DHT22;10985;54.182;7.890;2023-04-25T11:29:13;20.30;97.70
21648;DHT22;10985;54.182;7.890;2023-04-25T11:31:42;20.20;95.60
21648;DHT22;10985;54.182;7.890;2023-04-25T11:34:08;20.30;94.40
21648;DHT22;10985;54.182;7.890;2023-04-25T11:36:33;20.30;94.00
21648;DHT22;10985;54.182;7.890;2023-04-25T11:38:59;20.20;93.50
21648;DHT22;10985;54.182;7.890;2023-04-25T11:41:25;20.40;95.30
21648;DHT22;10985;54.182;7.890;2023-04-25T11:43:51;20.40;94.80
21648;DHT22;10985;54.182;7.890;2023-04-25T11:46:17;20.30;94.70
21648;DHT22;10985;54.182;7.890;2023-04-25T11:48:44;20.40;94.30
21648;DHT22;10985;54.182;7.890;2023-04-25T11:51:10;20.30;94.00
21648;DHT22;10985;54.182;7.890;2023-04-25T11:53:36;20.30;92.30
21648;DHT22;10985;54.182;7.890;2023-04-25T11:56:09;20.60;89.40
21648;DHT22;10985;54.182;7.890;2023-04-25T11:58:57;20.80;86.00
21648;DHT22;10985;54.182;7.890;2023-04-25T12:01:49;20.90;85.20
21648;DHT22;10985;54.182;7.890;2023-04-25T12:04:23;21.30;85.60
21648;DHT22;10985;54.182;7.890;2023-04-25T12:06:54;21.20;85.40
21648;DHT22;10985;54.182;7.890;2023-04-25T12:09:21;21.20;87.00
21648;DHT22;10985;54.182;7.890;2023-04-25T12:11:54;21.10;88.20
21648;DHT22;10985;54.182;7.890;2023-04-25T12:14:34;21.20;90.90
21648;DHT22;10985;54.182;7.890;2023-04-25T12:17:02;21.30;90.20
21648;DHT22;10985;54.182;7.890;2023-04-25T12:19:34;21.30;90.50
21648;DHT22;10985;54.182;7.890;2023-04-25T12:22:01;21.30;90.30
21648;DHT22;10985;54.182;7.890;2023-04-25T12:24:28;21.20;90.70
21648;DHT22;10985;54.182;7.890;2023-04-25T12:27:01;20.70;92.60
21648;DHT22;10985;54.182;7.890;2023-04-25T12:29:28;20.00;94.70
21648;DHT22;10985;54.182;7.890;2023-04-25T12:31:55;19.30;99.90
21648;DHT22;10985;54.182;7.890;2023-04-25T12:34:22;18.60;99.90
21648;DHT22;10985;54.182;7.890;2023-04-25T12:36:48;18.00;99.90
21648;DHT22;10985;54.182;7.890;2023-04-25T12:39:15;17.60;99.90
21648;DHT22;10985;54.182;7.890;2023-04-25T12:41:40;17.10;99.90
21648;DHT22;10985;54.182;7.890;2023-04-25T12:44:06;16.80;99.90
21648;DHT22;10985;54.182;7.890;2023-04-25T12:46:31;16.60;99.90
21648;DHT22;10985;54.182;7.890;2023-04-25T12:48:57;16.50;99.90
21648;DHT22;10985;54.182;7.890;2023-04-25T12:51:22;16.50;99.90
21648;DHT22;10985;54.182;7.890;2023-04-25T12:53:50;16.70;99.90
21648;DHT22;10985;54.182;7.890;2023-04-25T12:56:16;16.80;99.90
21648;DHT22;10985;54.182;7.890;2023-04-25T12:58:41;17.00;99.90
21648;DHT22;10985;54.182;7.890;2023-04-25T13:01:09;17.10;99.90
21648;DHT22;10985;54.182;7.890;2023-04-25T13:03:34;17.20;99.90
21648;DHT22;10985;54.182;7.890;2023-04-25T13:06:00;17.30;99.90
21648;DHT22;10985;54.182;7.890;2023-04-25T13:08:26;17.40;99.50
21648;DHT22;10985;54.182;7.890;2023-04-25T13:10:51;17.60;99.90
21648;DHT22;10985;54.182;7.890;2023-04-25T13:13:17;17.60;99.90
21648;DHT22;10985;54.182;7.890;2023-04-25T13:15:43;17.50;99.90
21648;DHT22;10985;54.182;7.890;2023-04-25T13:18:08;17.40;99.90
21648;DHT22;10985;54.182;7.890;2023-04-25T13:20:34;17.30;99.90
21648;DHT22;10985;54.182;7.890;2023-04-25T13:23:00;17.20;99.90
21648;DHT22;10985;54.182;7.890;2023-04-25T13:25:26;17.10;99.90
21648;DHT22;10985;54.182;7.890;2023-04-25T13:27:51;17.00;99.90
21648;DHT22;10985;54.182;7.890;2023-04-25T13:30:17;16.70;99.90
21648;DHT22;10985;54.182;7.890;2023-04-25T13:32:42;16.50;99.90
21648;DHT22;10985;54.182;7.890;2023-04-25T13:35:10;16.10;99.90
21648;DHT22;10985;54.182;7.890;2023-04-25T13:37:36;15.80;99.90
21648;DHT22;10985;54.182;7.890;2023-04-25T13:40:04;15.40;99.90
21648;DHT22;10985;54.182;7.890;2023-04-25T13:42:33;15.00;99.90
21648;DHT22;10985;54.182;7.890;2023-04-25T13:44:59;14.50;99.90
21648;DHT22;10985;54.182;7.890;2023-04-25T13:47:25;14.20;99.90
21648;DHT22;10985;54.182;7.890;2023-04-25T13:49:51;14.00;99.90
21648;DHT22;10985;54.182;7.890;2023-04-25T13:52:16;13.90;99.90
21648;DHT22;10985;54.182;7.890;2023-04-25T13:54:42;13.70;99.90
21648;DHT22;10985;54.182;7.890;2023-04-25T13:57:08;13.60;99.90
21648;DHT22;10985;54.182;7.890;2023-04-25T13:59:33;13.30;99.90
21648;DHT22;10985;54.182;7.890;2023-04-25T14:01:59;13.20;99.90
21648;DHT22;10985;54.182;7.890;2023-04-25T14:04:24;13.00;99.90
21648;DHT22;10985;54.182;7.890;2023-04-25T14:06:50;12.80;99.90
21648;DHT22;10985;54.182;7.890;2023-04-25T14:09:16;12.70;99.90
21648;DHT22;10985;54.182;7.890;2023-04-25T14:11:42;12.50;99.90
21648;DHT22;10985;54.182;7.890;2023-04-25T14:14:07;12.50;99.90
21648;DHT22;10985;54.182;7.890;2023-04-25T14:16:34;12.30;99.90
21648;DHT22;10985;54.182;7.890;2023-04-25T14:19:00;12.20;99.90
21648;DHT22;10985;54.182;7.890;2023-04-25T14:21:27;12.20;99.90
21648;DHT22;10985;54.182;7.890;2023-04-25T14:23:53;12.00;99.90
21648;DHT22;10985;54.182;7.890;2023-04-25T14:26:19;12.00;99.90
21648;DHT22;10985;54.182;7.890;2023-04-25T14:28:44;11.90;99.90
21648;DHT22;10985;54.182;7.890;2023-04-25T14:31:10;11.80;99.90
21648;DHT22;10985;54.182;7.890;2023-04-25T14:33:35;11.70;99.90
21648;DHT22;10985;54.182;7.890;2023-04-25T14:36:02;11.60;99.90
21648;DHT22;10985;54.182;7.890;2023-04-25T14:38:28;11.60;99.90
21648;DHT22;10985;54.182;7.890;2023-04-25T14:40:54;11.40;99.90
21648;DHT22;10985;54.182;7.890;2023-04-25T14:43:19;11.20;99.90
21648;DHT22;10985;54.182;7.890;2023-04-25T14:45:45;11.10;99.90
21648;DHT22;10985;54.182;7.890;2023-04-25T14:48:10;11.10;99.90
21648;DHT22;10985;54.182;7.890;2023-04-25T14:50:36;11.00;99.90
21648;DHT22;10985;54.182;7.890;2023-04-25T14:53:01;11.00;99.90
21648;DHT22;10985;54.182;7.890;2023-04-25T14:55:27;10.90;99.90
21648;DHT22;10985;54.182;7.890;2023-04-25T14:57:54;10.90;99.90
21648;DHT22;10985;54.182;7.890;2023-04-25T15:00:20;10.80;99.90
21648;DHT22;10985;54.182;7.890;2023-04-25T15:02:48;10.80;99.90
21648;DHT22;10985;54.182;7.890;2023-04-25T15:23:13;9.70;99.90
21648;DHT22;10985;54.182;7.890;2023-04-25T15:25:39;9.60;99.90
21648;DHT22;10985;54.182;7.890;2023-04-25T15:28:05;9.60;99.90
21648;DHT22;10985;54.182;7.890;2023-04-25T15:30:30;9.50;99.90
21648;DHT22;10985;54.182;7.890;2023-04-25T15:32:56;9.50;99.90
21648;DHT22;10985;54.182;7.890;2023-04-25T15:35:21;9.50;99.90
21648;DHT22;10985;54.182;7.890;2023-04-25T15:37:47;9.50;99.90
21648;DHT22;10985;54.182;7.890;2023-04-25T15:40:15;9.50;99.90
21648;DHT22;10985;54.182;7.890;2023-04-25T15:42:43;9.50;99.90
21648;DHT22;10985;54.182;7.890;2023-04-25T15:45:13;9.50;99.90
21648;DHT22;10985;54.182;7.890;2023-04-25T15:47:39;9.50;99.90
21648;DHT22;10985;54.182;7.890;2023-04-25T15:50:07;9.50;99.90
21648;DHT22;10985;54.182;7.890;2023-04-25T15:52:34;9.50;99.90
21648;DHT22;10985;54.182;7.890;2023-04-25T15:55:00;9.50;99.90
21648;DHT22;10985;54.182;7.890;2023-04-25T15:57:26;9.60;99.90
21648;DHT22;10985;54.182;7.890;2023-04-25T15:59:51;9.50;99.90
21648;DHT22;10985;54.182;7.890;2023-04-25T16:02:17;9.60;99.90